sensor_id;sensor_type;location;lat;lon;timestamp;P1;durP1;ratioP1;P2;durP2;ratioP2
1995;SDS011;38556;47.068;15.408;2023-02-22T00:00:10;21.55;;;20.15;;
1995;SDS011;38556;47.068;15.408;2023-02-22T00:02:44;21.30;;;19.90;;
1995;SDS011;38556;47.068;15.408;2023-02-22T00:05:13;21.13;;;19.83;;
1995;SDS011;38556;47.068;15.408;2023-02-22T00:07:42;21.35;;;20.05;;
1995;SDS011;38556;47.068;15.408;2023-02-22T00:10:10;21.27;;;19.98;;
1995;SDS011;38556;47.068;15.408;2023-02-22T00:12:39;21.13;;;19.70;;
1995;SDS011;38556;47.068;15.408;2023-02-22T00:15:07;23.08;;;21.38;;
1995;SDS011;38556;47.068;15.408;2023-02-22T00:17:37;22.38;;;21.08;;
1995;SDS011;38556;47.068;15.408;2023-02-22T00:20:05;21.58;;;20.27;;
1995;SDS011;38556;47.068;15.408;2023-02-22T00:22:34;21.38;;;20.02;;
1995;SDS011;38556;47.068;15.408;2023-02-22T00:25:03;21.90;;;20.50;;
1995;SDS011;38556;47.068;15.408;2023-02-22T00:27:31;20.80;;;19.60;;
1995;SDS011;38556;47.068;15.408;2023-02-22T00:29:58;21.30;;;19.90;;
1995;SDS011;38556;47.068;15.408;2023-02-22T00:32:25;21.55;;;20.15;;
1995;SDS011;38556;47.068;15.408;2023-02-22T00:34:53;21.92;;;20.52;;
1995;SDS011;38556;47.068;15.408;2023-02-22T00:37:20;21.48;;;20.17;;
1995;SDS011;38556;47.068;15.408;2023-02-22T00:39:48;22.10;;;20.80;;
1995;SDS011;38556;47.068;15.408;2023-02-22T00:42:17;22.08;;;20.67;;
1995;SDS011;38556;47.068;15.408;2023-02-22T00:44:45;21.50;;;20.10;;
1995;SDS011;38556;47.068;15.408;2023-02-22T00:47:13;20.58;;;19.48;;
1995;SDS011;38556;47.068;15.408;2023-02-22T00:49:40;21.73;;;20.30;;
1995;SDS011;38556;47.068;15.408;2023-02-22T00:52:07;20.70;;;19.50;;
1995;SDS011;38556;47.068;15.408;2023-02-22T00:54:34;22.02;;;20.55;;
1995;SDS011;38556;47.068;15.408;2023-02-22T00:57:02;21.30;;;19.75;;
1995;SDS011;38556;47.068;15.408;2023-02-22T00:59:30;21.15;;;19.85;;
1995;SDS011;38556;47.068;15.408;2023-02-22T01:01:58;20.67;;;19.48;;
1995;SDS011;38556;47.068;15.408;2023-02-22T01:04:25;20.25;;;19.15;;
1995;SDS011;38556;47.068;15.408;2023-02-22T01:06:52;20.65;;;19.45;;
1995;SDS011;38556;47.068;15.408;2023-02-22T01:09:20;20.42;;;19.17;;
1995;SDS011;38556;47.068;15.408;2023-02-22T01:11:49;21.00;;;19.80;;
1995;SDS011;38556;47.068;15.408;2023-02-22T01:14:21;20.45;;;19.25;;
1995;SDS011;38556;47.068;15.408;2023-02-22T01:16:52;20.40;;;19.30;;
1995;SDS011;38556;47.068;15.408;2023-02-22T01:19:19;20.52;;;19.30;;
1995;SDS011;38556;47.068;15.408;2023-02-22T01:21:47;21.05;;;19.77;;
1995;SDS011;38556;47.068;15.408;2023-02-22T01:24:15;20.35;;;19.25;;
1995;SDS011;38556;47.068;15.408;2023-02-22T01:26:48;20.55;;;19.35;;
1995;SDS011;38556;47.068;15.408;2023-02-22T01:29:17;21.77;;;20.38;;
1995;SDS011;38556;47.068;15.408;2023-02-22T01:31:52;20.10;;;18.90;;
1995;SDS011;38556;47.068;15.408;2023-02-22T01:34:20;20.83;;;19.63;;
1995;SDS011;38556;47.068;15.408;2023-02-22T01:36:48;20.48;;;19.30;;
1995;SDS011;38556;47.068;15.408;2023-02-22T01:39:16;20.83;;;19.63;;
1995;SDS011;38556;47.068;15.408;2023-02-22T01:41:43;20.27;;;19.08;;
1995;SDS011;38556;47.068;15.408;2023-02-22T01:44:18;20.55;;;19.23;;
1995;SDS011;38556;47.068;15.408;2023-02-22T01:46:52;20.90;;;19.60;;
1995;SDS011;38556;47.068;15.408;2023-02-22T01:49:20;20.40;;;19.20;;
1995;SDS011;38556;47.068;15.408;2023-02-22T01:51:50;21.27;;;19.88;;
1995;SDS011;38556;47.068;15.408;2023-02-22T01:54:22;21.00;;;19.77;;
1995;SDS011;38556;47.068;15.408;2023-02-22T01:56:57;21.38;;;20.00;;
1995;SDS011;38556;47.068;15.408;2023-02-22T01:59:30;20.50;;;19.10;;
1995;SDS011;38556;47.068;15.408;2023-02-22T02:02:01;20.58;;;19.40;;
1995;SDS011;38556;47.068;15.408;2023-02-22T02:04:30;21.10;;;19.73;;
1995;SDS011;38556;47.068;15.408;2023-02-22T02:07:00;21.65;;;20.15;;
1995;SDS011;38556;47.068;15.408;2023-02-22T02:09:32;20.92;;;19.60;;
1995;SDS011;38556;47.068;15.408;2023-02-22T02:12:05;21.25;;;19.92;;
1995;SDS011;38556;47.068;15.408;2023-02-22T02:14:35;20.65;;;19.45;;
1995;SDS011;38556;47.068;15.408;2023-02-22T02:17:08;20.90;;;19.65;;
1995;SDS011;38556;47.068;15.408;2023-02-22T02:19:40;21.00;;;19.60;;
1995;SDS011;38556;47.068;15.408;2023-02-22T02:22:22;20.40;;;19.20;;
1995;SDS011;38556;47.068;15.408;2023-02-22T02:28:14;20.00;;;18.90;;
1995;SDS011;38556;47.068;15.408;2023-02-22T02:31:12;21.20;;;19.67;;
1995;SDS011;38556;47.068;15.408;2023-02-22T02:34:11;20.73;;;19.42;;
1995;SDS011;38556;47.068;15.408;2023-02-22T02:36:50;20.55;;;19.23;;
1995;SDS011;38556;47.068;15.408;2023-02-22T02:39:25;20.10;;;18.90;;
1995;SDS011;38556;47.068;15.408;2023-02-22T02:41:54;20.80;;;19.50;;
1995;SDS011;38556;47.068;15.408;2023-02-22T02:44:26;19.80;;;18.70;;
1995;SDS011;38556;47.068;15.408;2023-02-22T02:46:58;20.45;;;19.25;;
1995;SDS011;38556;47.068;15.408;2023-02-22T02:49:29;20.58;;;19.35;;
1995;SDS011;38556;47.068;15.408;2023-02-22T02:52:02;19.95;;;18.70;;
1995;SDS011;38556;47.068;15.408;2023-02-22T02:54:31;20.27;;;18.90;;
1995;SDS011;38556;47.068;15.408;2023-02-22T02:57:01;19.95;;;18.70;;
1995;SDS011;38556;47.068;15.408;2023-02-22T02:59:29;20.65;;;19.35;;
1995;SDS011;38556;47.068;15.408;2023-02-22T03:02:14;20.42;;;19.25;;
1995;SDS011;38556;47.068;15.408;2023-02-22T03:04:54;20.42;;;19.23;;
1995;SDS011;38556;47.068;15.408;2023-02-22T03:07:44;19.90;;;18.75;;
1995;SDS011;38556;47.068;15.408;2023-02-22T03:10:27;20.80;;;19.50;;
1995;SDS011;38556;47.068;15.408;2023-02-22T03:13:07;20.92;;;19.70;;
1995;SDS011;38556;47.068;15.408;2023-02-22T03:15:41;20.80;;;19.60;;
1995;SDS011;38556;47.068;15.408;2023-02-22T03:18:17;21.20;;;20.00;;
1995;SDS011;38556;47.068;15.408;2023-02-22T03:20:52;20.90;;;19.70;;
1995;SDS011;38556;47.068;15.408;2023-02-22T03:23:27;21.50;;;20.20;;
1995;SDS011;38556;47.068;15.408;2023-02-22T03:25:57;20.58;;;19.35;;
1995;SDS011;38556;47.068;15.408;2023-02-22T03:28:29;21.08;;;19.98;;
1995;SDS011;38556;47.068;15.408;2023-02-22T03:30:58;20.58;;;19.48;;
1995;SDS011;38556;47.068;15.408;2023-02-22T03:33:31;20.05;;;18.98;;
1995;SDS011;38556;47.068;15.408;2023-02-22T03:36:04;21.65;;;19.45;;
1995;SDS011;38556;47.068;15.408;2023-02-22T03:38:38;20.10;;;19.10;;
1995;SDS011;38556;47.068;15.408;2023-02-22T03:41:08;20.50;;;19.40;;
1995;SDS011;38556;47.068;15.408;2023-02-22T03:43:37;20.38;;;19.17;;
1995;SDS011;38556;47.068;15.408;2023-02-22T03:46:08;20.52;;;19.35;;
1995;SDS011;38556;47.068;15.408;2023-02-22T03:48:41;21.00;;;19.70;;
1995;SDS011;38556;47.068;15.408;2023-02-22T03:51:13;20.48;;;19.27;;
1995;SDS011;38556;47.068;15.408;2023-02-22T03:53:42;20.42;;;19.23;;
1995;SDS011;38556;47.068;15.408;2023-02-22T03:56:11;20.40;;;19.10;;
1995;SDS011;38556;47.068;15.408;2023-02-22T03:58:44;20.15;;;19.00;;
1995;SDS011;38556;47.068;15.408;2023-02-22T04:01:14;20.20;;;19.00;;
1995;SDS011;38556;47.068;15.408;2023-02-22T04:03:42;20.63;;;19.42;;
1995;SDS011;38556;47.068;15.408;2023-02-22T04:06:10;20.90;;;19.70;;
1995;SDS011;38556;47.068;15.408;2023-02-22T04:08:39;21.30;;;19.90;;
1995;SDS011;38556;47.068;15.408;2023-02-22T04:11:08;21.35;;;20.00;;
1995;SDS011;38556;47.068;15.408;2023-02-22T04:13:35;21.05;;;19.65;;
1995;SDS011;38556;47.068;15.408;2023-02-22T04:16:03;21.42;;;19.92;;
1995;SDS011;38556;47.068;15.408;2023-02-22T04:18:30;20.70;;;19.50;;
1995;SDS011;38556;47.068;15.408;2023-02-22T04:20:57;21.45;;;20.20;;
1995;SDS011;38556;47.068;15.408;2023-02-22T04:23:25;20.73;;;19.38;;
1995;SDS011;38556;47.068;15.408;2023-02-22T04:25:53;21.13;;;19.92;;
1995;SDS011;38556;47.068;15.408;2023-02-22T04:28:21;20.98;;;19.45;;
1995;SDS011;38556;47.068;15.408;2023-02-22T04:30:48;20.08;;;18.83;;
1995;SDS011;38556;47.068;15.408;2023-02-22T04:33:16;21.35;;;20.15;;
1995;SDS011;38556;47.068;15.408;2023-02-22T04:35:43;20.63;;;19.23;;
1995;SDS011;38556;47.068;15.408;2023-02-22T04:38:10;20.40;;;19.30;;
1995;SDS011;38556;47.068;15.408;2023-02-22T04:40:38;21.27;;;19.88;;
1995;SDS011;38556;47.068;15.408;2023-02-22T04:43:06;21.02;;;19.67;;
1995;SDS011;38556;47.068;15.408;2023-02-22T04:45:34;20.60;;;19.20;;
1995;SDS011;38556;47.068;15.408;2023-02-22T04:48:01;20.50;;;19.10;;
1995;SDS011;38556;47.068;15.408;2023-02-22T04:50:28;20.63;;;19.25;;
1995;SDS011;38556;47.068;15.408;2023-02-22T04:52:56;20.35;;;19.15;;
1995;SDS011;38556;47.068;15.408;2023-02-22T04:55:23;20.00;;;18.90;;
1995;SDS011;38556;47.068;15.408;2023-02-22T04:57:50;19.98;;;18.77;;
1995;SDS011;38556;47.068;15.408;2023-02-22T05:00:19;20.35;;;19.17;;
1995;SDS011;38556;47.068;15.408;2023-02-22T05:02:47;20.45;;;19.35;;
1995;SDS011;38556;47.068;15.408;2023-02-22T05:05:15;20.20;;;18.80;;
1995;SDS011;38556;47.068;15.408;2023-02-22T05:07:43;20.73;;;19.52;;
1995;SDS011;38556;47.068;15.408;2023-02-22T05:10:11;20.40;;;19.23;;
1995;SDS011;38556;47.068;15.408;2023-02-22T05:12:38;21.20;;;20.00;;
1995;SDS011;38556;47.068;15.408;2023-02-22T05:15:06;20.48;;;19.25;;
1995;SDS011;38556;47.068;15.408;2023-02-22T05:17:35;20.00;;;18.80;;
1995;SDS011;38556;47.068;15.408;2023-02-22T05:20:03;21.02;;;19.63;;
1995;SDS011;38556;47.068;15.408;2023-02-22T05:22:32;21.10;;;19.70;;
1995;SDS011;38556;47.068;15.408;2023-02-22T05:25:00;21.00;;;19.73;;
1995;SDS011;38556;47.068;15.408;2023-02-22T05:27:28;21.48;;;20.17;;
1995;SDS011;38556;47.068;15.408;2023-02-22T05:29:55;21.33;;;19.90;;
1995;SDS011;38556;47.068;15.408;2023-02-22T05:32:22;20.45;;;19.27;;
1995;SDS011;38556;47.068;15.408;2023-02-22T05:34:51;22.00;;;20.50;;
1995;SDS011;38556;47.068;15.408;2023-02-22T05:37:18;21.63;;;20.23;;
1995;SDS011;38556;47.068;15.408;2023-02-22T05:39:45;21.88;;;20.20;;
1995;SDS011;38556;47.068;15.408;2023-02-22T05:42:13;20.80;;;19.58;;
1995;SDS011;38556;47.068;15.408;2023-02-22T05:44:40;21.75;;;20.45;;
1995;SDS011;38556;47.068;15.408;2023-02-22T05:47:08;23.42;;;21.17;;
1995;SDS011;38556;47.068;15.408;2023-02-22T05:49:35;21.70;;;20.40;;
1995;SDS011;38556;47.068;15.408;2023-02-22T05:52:04;20.38;;;19.17;;
1995;SDS011;38556;47.068;15.408;2023-02-22T05:54:32;21.98;;;20.67;;
1995;SDS011;38556;47.068;15.408;2023-02-22T05:56:59;21.90;;;20.60;;
1995;SDS011;38556;47.068;15.408;2023-02-22T05:59:26;21.20;;;20.00;;
1995;SDS011;38556;47.068;15.408;2023-02-22T06:01:54;20.73;;;19.60;;
1995;SDS011;38556;47.068;15.408;2023-02-22T06:04:22;22.80;;;21.02;;
1995;SDS011;38556;47.068;15.408;2023-02-22T06:06:49;21.38;;;19.98;;
1995;SDS011;38556;47.068;15.408;2023-02-22T06:09:18;21.42;;;19.67;;
1995;SDS011;38556;47.068;15.408;2023-02-22T06:11:45;21.83;;;20.23;;
1995;SDS011;38556;47.068;15.408;2023-02-22T06:14:12;21.33;;;19.92;;
1995;SDS011;38556;47.068;15.408;2023-02-22T06:16:39;21.60;;;20.20;;
1995;SDS011;38556;47.068;15.408;2023-02-22T06:19:07;21.52;;;20.10;;
1995;SDS011;38556;47.068;15.408;2023-02-22T06:21:34;22.60;;;21.15;;
1995;SDS011;38556;47.068;15.408;2023-02-22T06:24:02;21.75;;;20.35;;
1995;SDS011;38556;47.068;15.408;2023-02-22T06:26:31;23.20;;;21.52;;
1995;SDS011;38556;47.068;15.408;2023-02-22T06:28:58;23.20;;;21.23;;
1995;SDS011;38556;47.068;15.408;2023-02-22T06:31:25;21.10;;;19.90;;
1995;SDS011;38556;47.068;15.408;2023-02-22T06:33:52;23.17;;;21.33;;
1995;SDS011;38556;47.068;15.408;2023-02-22T06:36:20;22.50;;;20.52;;
1995;SDS011;38556;47.068;15.408;2023-02-22T06:38:47;22.38;;;20.58;;
1995;SDS011;38556;47.068;15.408;2023-02-22T06:41:15;22.10;;;20.13;;
1995;SDS011;38556;47.068;15.408;2023-02-22T06:43:44;20.88;;;19.48;;
1995;SDS011;38556;47.068;15.408;2023-02-22T06:46:13;26.55;;;21.83;;
1995;SDS011;38556;47.068;15.408;2023-02-22T06:48:41;22.58;;;21.00;;
1995;SDS011;38556;47.068;15.408;2023-02-22T06:51:09;22.58;;;20.83;;
1995;SDS011;38556;47.068;15.408;2023-02-22T06:53:36;23.50;;;21.95;;
1995;SDS011;38556;47.068;15.408;2023-02-22T06:56:04;22.67;;;21.15;;
1995;SDS011;38556;47.068;15.408;2023-02-22T06:58:32;24.15;;;22.17;;
1995;SDS011;38556;47.068;15.408;2023-02-22T07:01:01;23.90;;;22.05;;
1995;SDS011;38556;47.068;15.408;2023-02-22T07:03:28;22.90;;;21.38;;
1995;SDS011;38556;47.068;15.408;2023-02-22T07:05:56;23.52;;;21.80;;
1995;SDS011;38556;47.068;15.408;2023-02-22T07:08:23;23.80;;;22.08;;
1995;SDS011;38556;47.068;15.408;2023-02-22T07:10:50;24.00;;;22.02;;
1995;SDS011;38556;47.068;15.408;2023-02-22T07:13:18;23.48;;;21.70;;
1995;SDS011;38556;47.068;15.408;2023-02-22T07:15:45;28.40;;;22.60;;
1995;SDS011;38556;47.068;15.408;2023-02-22T07:18:14;23.90;;;22.40;;
1995;SDS011;38556;47.068;15.408;2023-02-22T07:20:42;24.63;;;22.35;;
1995;SDS011;38556;47.068;15.408;2023-02-22T07:23:12;26.40;;;23.15;;
1995;SDS011;38556;47.068;15.408;2023-02-22T07:25:39;39.88;;;35.78;;
1995;SDS011;38556;47.068;15.408;2023-02-22T07:28:07;26.33;;;24.05;;
1995;SDS011;38556;47.068;15.408;2023-02-22T07:30:35;24.55;;;22.67;;
1995;SDS011;38556;47.068;15.408;2023-02-22T07:33:04;24.27;;;22.58;;
1995;SDS011;38556;47.068;15.408;2023-02-22T07:35:34;22.63;;;21.08;;
1995;SDS011;38556;47.068;15.408;2023-02-22T07:38:03;22.77;;;21.08;;
1995;SDS011;38556;47.068;15.408;2023-02-22T07:40:33;23.05;;;21.45;;
1995;SDS011;38556;47.068;15.408;2023-02-22T07:43:02;23.52;;;21.83;;
1995;SDS011;38556;47.068;15.408;2023-02-22T07:45:31;23.05;;;21.05;;
1995;SDS011;38556;47.068;15.408;2023-02-22T07:48:00;22.00;;;20.30;;
1995;SDS011;38556;47.068;15.408;2023-02-22T07:50:29;24.05;;;21.92;;
1995;SDS011;38556;47.068;15.408;2023-02-22T07:53:00;23.50;;;22.10;;
1995;SDS011;38556;47.068;15.408;2023-02-22T07:55:29;23.85;;;22.25;;
1995;SDS011;38556;47.068;15.408;2023-02-22T07:57:58;21.73;;;20.33;;
1995;SDS011;38556;47.068;15.408;2023-02-22T08:00:27;23.23;;;21.17;;
1995;SDS011;38556;47.068;15.408;2023-02-22T08:02:57;23.10;;;21.60;;
1995;SDS011;38556;47.068;15.408;2023-02-22T08:05:25;23.17;;;21.33;;
1995;SDS011;38556;47.068;15.408;2023-02-22T08:07:54;22.65;;;20.90;;
1995;SDS011;38556;47.068;15.408;2023-02-22T08:10:23;22.65;;;20.80;;
1995;SDS011;38556;47.068;15.408;2023-02-22T08:12:52;24.77;;;22.70;;
1995;SDS011;38556;47.068;15.408;2023-02-22T08:15:21;23.13;;;21.63;;
1995;SDS011;38556;47.068;15.408;2023-02-22T08:17:50;23.25;;;21.40;;
1995;SDS011;38556;47.068;15.408;2023-02-22T08:20:18;22.05;;;20.45;;
1995;SDS011;38556;47.068;15.408;2023-02-22T08:22:46;22.95;;;21.58;;
1995;SDS011;38556;47.068;15.408;2023-02-22T08:25:14;23.17;;;21.38;;
1995;SDS011;38556;47.068;15.408;2023-02-22T08:27:45;24.73;;;22.88;;
1995;SDS011;38556;47.068;15.408;2023-02-22T08:30:14;23.75;;;22.05;;
1995;SDS011;38556;47.068;15.408;2023-02-22T08:32:44;24.65;;;23.05;;
1995;SDS011;38556;47.068;15.408;2023-02-22T08:35:11;25.60;;;23.48;;
1995;SDS011;38556;47.068;15.408;2023-02-22T08:37:40;25.75;;;23.70;;
1995;SDS011;38556;47.068;15.408;2023-02-22T08:40:08;25.13;;;23.05;;
1995;SDS011;38556;47.068;15.408;2023-02-22T08:42:36;25.45;;;23.13;;
1995;SDS011;38556;47.068;15.408;2023-02-22T08:45:05;25.08;;;23.30;;
1995;SDS011;38556;47.068;15.408;2023-02-22T08:47:34;24.52;;;22.80;;
1995;SDS011;38556;47.068;15.408;2023-02-22T08:50:02;31.80;;;29.15;;
1995;SDS011;38556;47.068;15.408;2023-02-22T08:52:30;24.50;;;23.00;;
1995;SDS011;38556;47.068;15.408;2023-02-22T08:54:57;25.35;;;23.55;;
1995;SDS011;38556;47.068;15.408;2023-02-22T08:57:24;25.67;;;24.05;;
1995;SDS011;38556;47.068;15.408;2023-02-22T08:59:51;25.50;;;23.75;;
1995;SDS011;38556;47.068;15.408;2023-02-22T09:02:20;27.10;;;24.98;;
1995;SDS011;38556;47.068;15.408;2023-02-22T09:04:48;28.02;;;25.92;;
1995;SDS011;38556;47.068;15.408;2023-02-22T09:07:16;28.77;;;26.48;;
1995;SDS011;38556;47.068;15.408;2023-02-22T09:09:43;29.10;;;27.13;;
1995;SDS011;38556;47.068;15.408;2023-02-22T09:12:11;28.70;;;26.52;;
1995;SDS011;38556;47.068;15.408;2023-02-22T09:14:38;29.73;;;27.52;;
1995;SDS011;38556;47.068;15.408;2023-02-22T09:17:07;31.85;;;29.45;;
1995;SDS011;38556;47.068;15.408;2023-02-22T09:19:36;29.75;;;27.52;;
1995;SDS011;38556;47.068;15.408;2023-02-22T09:22:03;31.38;;;28.85;;
1995;SDS011;38556;47.068;15.408;2023-02-22T09:24:31;32.67;;;29.98;;
1995;SDS011;38556;47.068;15.408;2023-02-22T09:26:58;32.50;;;30.00;;
1995;SDS011;38556;47.068;15.408;2023-02-22T09:29:28;31.20;;;28.67;;
1995;SDS011;38556;47.068;15.408;2023-02-22T09:31:56;31.58;;;29.20;;
1995;SDS011;38556;47.068;15.408;2023-02-22T09:34:23;30.27;;;27.80;;
1995;SDS011;38556;47.068;15.408;2023-02-22T09:36:56;30.67;;;28.35;;
1995;SDS011;38556;47.068;15.408;2023-02-22T09:39:23;31.60;;;29.30;;
1995;SDS011;38556;47.068;15.408;2023-02-22T09:41:52;31.77;;;29.50;;
1995;SDS011;38556;47.068;15.408;2023-02-22T09:44:26;30.63;;;28.33;;
1995;SDS011;38556;47.068;15.408;2023-02-22T09:47:00;31.05;;;28.40;;
1995;SDS011;38556;47.068;15.408;2023-02-22T09:49:30;29.00;;;26.85;;
1995;SDS011;38556;47.068;15.408;2023-02-22T09:52:05;28.75;;;26.52;;
1995;SDS011;38556;47.068;15.408;2023-02-22T09:54:38;29.70;;;27.42;;
1995;SDS011;38556;47.068;15.408;2023-02-22T09:57:10;27.67;;;25.70;;
1995;SDS011;38556;47.068;15.408;2023-02-22T09:59:42;28.98;;;26.77;;
1995;SDS011;38556;47.068;15.408;2023-02-22T10:02:21;27.70;;;25.80;;
1995;SDS011;38556;47.068;15.408;2023-02-22T10:04:54;26.85;;;25.00;;
1995;SDS011;38556;47.068;15.408;2023-02-22T10:07:28;30.55;;;28.13;;
1995;SDS011;38556;47.068;15.408;2023-02-22T10:09:59;27.42;;;25.52;;
1995;SDS011;38556;47.068;15.408;2023-02-22T10:12:33;26.70;;;24.70;;
1995;SDS011;38556;47.068;15.408;2023-02-22T10:15:26;28.42;;;26.20;;
1995;SDS011;38556;47.068;15.408;2023-02-22T10:18:21;28.90;;;26.92;;
1995;SDS011;38556;47.068;15.408;2023-02-22T10:21:06;28.20;;;26.10;;
1995;SDS011;38556;47.068;15.408;2023-02-22T10:23:45;28.27;;;26.17;;
1995;SDS011;38556;47.068;15.408;2023-02-22T10:26:22;28.00;;;25.73;;
1995;SDS011;38556;47.068;15.408;2023-02-22T10:28:52;27.35;;;25.45;;
1995;SDS011;38556;47.068;15.408;2023-02-22T10:31:25;25.30;;;23.70;;
1995;SDS011;38556;47.068;15.408;2023-02-22T10:33:59;26.60;;;24.55;;
1995;SDS011;38556;47.068;15.408;2023-02-22T10:36:28;27.15;;;25.17;;
1995;SDS011;38556;47.068;15.408;2023-02-22T10:38:57;27.23;;;25.33;;
1995;SDS011;38556;47.068;15.408;2023-02-22T10:41:28;28.05;;;26.05;;
1995;SDS011;38556;47.068;15.408;2023-02-22T10:43:57;27.30;;;25.25;;
1995;SDS011;38556;47.068;15.408;2023-02-22T10:46:26;29.40;;;27.10;;
1995;SDS011;38556;47.068;15.408;2023-02-22T10:48:55;27.05;;;25.15;;
1995;SDS011;38556;47.068;15.408;2023-02-22T10:51:28;27.38;;;25.38;;
1995;SDS011;38556;47.068;15.408;2023-02-22T10:53:59;27.55;;;25.65;;
1995;SDS011;38556;47.068;15.408;2023-02-22T10:56:45;25.38;;;23.58;;
1995;SDS011;38556;47.068;15.408;2023-02-22T10:59:24;27.20;;;25.10;;
1995;SDS011;38556;47.068;15.408;2023-02-22T11:01:53;27.45;;;25.55;;
1995;SDS011;38556;47.068;15.408;2023-02-22T11:04:21;30.70;;;28.50;;
1995;SDS011;38556;47.068;15.408;2023-02-22T11:07:05;35.05;;;32.38;;
1995;SDS011;38556;47.068;15.408;2023-02-22T11:09:45;27.27;;;25.30;;
1995;SDS011;38556;47.068;15.408;2023-02-22T11:12:17;26.70;;;24.80;;
1995;SDS011;38556;47.068;15.408;2023-02-22T11:14:46;27.30;;;25.10;;
1995;SDS011;38556;47.068;15.408;2023-02-22T11:17:19;27.20;;;25.35;;
1995;SDS011;38556;47.068;15.408;2023-02-22T11:19:53;26.80;;;24.95;;
1995;SDS011;38556;47.068;15.408;2023-02-22T11:22:21;27.23;;;25.42;;
1995;SDS011;38556;47.068;15.408;2023-02-22T11:24:55;26.92;;;24.92;;
1995;SDS011;38556;47.068;15.408;2023-02-22T11:27:29;27.17;;;25.15;;
1995;SDS011;38556;47.068;15.408;2023-02-22T11:32:54;30.02;;;27.23;;
1995;SDS011;38556;47.068;15.408;2023-02-22T11:35:35;28.55;;;26.45;;
1995;SDS011;38556;47.068;15.408;2023-02-22T11:38:14;28.90;;;26.55;;
1995;SDS011;38556;47.068;15.408;2023-02-22T11:40:47;27.58;;;25.52;;
1995;SDS011;38556;47.068;15.408;2023-02-22T11:43:39;27.05;;;25.20;;
1995;SDS011;38556;47.068;15.408;2023-02-22T11:46:08;29.38;;;27.08;;
1995;SDS011;38556;47.068;15.408;2023-02-22T11:48:40;29.90;;;27.58;;
1995;SDS011;38556;47.068;15.408;2023-02-22T11:51:15;29.92;;;27.40;;
1995;SDS011;38556;47.068;15.408;2023-02-22T11:56:51;28.50;;;26.60;;
1995;SDS011;38556;47.068;15.408;2023-02-22T11:59:28;30.45;;;27.63;;
1995;SDS011;38556;47.068;15.408;2023-02-22T12:02:04;27.75;;;25.88;;
1995;SDS011;38556;47.068;15.408;2023-02-22T12:04:53;30.10;;;27.42;;
1995;SDS011;38556;47.068;15.408;2023-02-22T12:07:33;29.13;;;26.73;;
1995;SDS011;38556;47.068;15.408;2023-02-22T12:10:13;29.05;;;26.90;;
1995;SDS011;38556;47.068;15.408;2023-02-22T12:12:57;29.42;;;27.00;;
1995;SDS011;38556;47.068;15.408;2023-02-22T12:15:35;29.60;;;27.15;;
1995;SDS011;38556;47.068;15.408;2023-02-22T12:18:10;28.90;;;26.65;;
1995;SDS011;38556;47.068;15.408;2023-02-22T12:20:45;29.15;;;26.95;;
1995;SDS011;38556;47.068;15.408;2023-02-22T12:23:18;30.05;;;27.48;;
1995;SDS011;38556;47.068;15.408;2023-02-22T12:25:53;29.85;;;27.55;;
1995;SDS011;38556;47.068;15.408;2023-02-22T12:28:27;29.80;;;27.52;;
1995;SDS011;38556;47.068;15.408;2023-02-22T12:31:03;29.17;;;26.83;;
1995;SDS011;38556;47.068;15.408;2023-02-22T12:33:46;29.15;;;26.80;;
1995;SDS011;38556;47.068;15.408;2023-02-22T12:36:19;28.83;;;26.55;;
1995;SDS011;38556;47.068;15.408;2023-02-22T12:38:53;29.38;;;27.30;;
1995;SDS011;38556;47.068;15.408;2023-02-22T12:41:26;28.83;;;26.63;;
1995;SDS011;38556;47.068;15.408;2023-02-22T12:44:01;28.73;;;26.40;;
1995;SDS011;38556;47.068;15.408;2023-02-22T12:46:35;28.60;;;26.50;;
1995;SDS011;38556;47.068;15.408;2023-02-22T12:49:06;26.58;;;24.77;;
1995;SDS011;38556;47.068;15.408;2023-02-22T12:51:42;28.23;;;26.13;;
1995;SDS011;38556;47.068;15.408;2023-02-22T12:54:13;30.33;;;26.10;;
1995;SDS011;38556;47.068;15.408;2023-02-22T12:56:48;141.23;;;69.63;;
1995;SDS011;38556;47.068;15.408;2023-02-22T12:59:21;38.10;;;32.33;;
1995;SDS011;38556;47.068;15.408;2023-02-22T13:01:55;28.53;;;26.47;;
1995;SDS011;38556;47.068;15.408;2023-02-22T13:04:28;27.97;;;25.87;;
1995;SDS011;38556;47.068;15.408;2023-02-22T13:07:03;26.50;;;24.50;;
1995;SDS011;38556;47.068;15.408;2023-02-22T13:12:45;27.83;;;25.83;;
1995;SDS011;38556;47.068;15.408;2023-02-22T13:15:24;28.57;;;26.37;;
1995;SDS011;38556;47.068;15.408;2023-02-22T13:18:00;28.83;;;26.83;;
1995;SDS011;38556;47.068;15.408;2023-02-22T13:20:35;28.70;;;26.70;;
1995;SDS011;38556;47.068;15.408;2023-02-22T13:23:09;29.23;;;26.97;;
1995;SDS011;38556;47.068;15.408;2023-02-22T13:25:44;27.93;;;25.87;;
1995;SDS011;38556;47.068;15.408;2023-02-22T13:28:21;29.40;;;26.97;;
1995;SDS011;38556;47.068;15.408;2023-02-22T13:31:06;26.97;;;25.10;;
1995;SDS011;38556;47.068;15.408;2023-02-22T13:36:59;27.20;;;25.07;;
1995;SDS011;38556;47.068;15.408;2023-02-22T13:39:43;27.67;;;25.77;;
1995;SDS011;38556;47.068;15.408;2023-02-22T13:42:40;27.50;;;25.20;;
1995;SDS011;38556;47.068;15.408;2023-02-22T13:48:49;28.90;;;26.90;;
1995;SDS011;38556;47.068;15.408;2023-02-22T13:51:37;28.10;;;26.00;;
1995;SDS011;38556;47.068;15.408;2023-02-22T13:54:14;27.97;;;25.90;;
1995;SDS011;38556;47.068;15.408;2023-02-22T13:56:49;25.20;;;23.73;;
1995;SDS011;38556;47.068;15.408;2023-02-22T13:59:21;26.87;;;24.90;;
1995;SDS011;38556;47.068;15.408;2023-02-22T14:01:53;26.67;;;24.90;;
1995;SDS011;38556;47.068;15.408;2023-02-22T14:04:33;26.83;;;24.87;;
1995;SDS011;38556;47.068;15.408;2023-02-22T14:07:04;26.90;;;25.17;;
1995;SDS011;38556;47.068;15.408;2023-02-22T14:13:05;27.20;;;25.40;;
1995;SDS011;38556;47.068;15.408;2023-02-22T14:15:33;27.93;;;26.13;;
1995;SDS011;38556;47.068;15.408;2023-02-22T14:18:01;25.70;;;23.77;;
1995;SDS011;38556;47.068;15.408;2023-02-22T14:20:33;26.27;;;24.43;;
1995;SDS011;38556;47.068;15.408;2023-02-22T14:26:08;28.10;;;26.20;;
1995;SDS011;38556;47.068;15.408;2023-02-22T14:28:39;28.93;;;26.93;;
1995;SDS011;38556;47.068;15.408;2023-02-22T14:31:13;27.03;;;25.07;;
1995;SDS011;38556;47.068;15.408;2023-02-22T14:33:54;26.73;;;24.93;;
1995;SDS011;38556;47.068;15.408;2023-02-22T14:36:26;29.10;;;26.80;;
1995;SDS011;38556;47.068;15.408;2023-02-22T14:39:02;27.07;;;25.30;;
1995;SDS011;38556;47.068;15.408;2023-02-22T14:41:34;26.57;;;24.83;;
1995;SDS011;38556;47.068;15.408;2023-02-22T14:44:05;26.90;;;25.20;;
1995;SDS011;38556;47.068;15.408;2023-02-22T14:46:37;28.33;;;26.30;;
1995;SDS011;38556;47.068;15.408;2023-02-22T14:49:08;26.30;;;24.60;;
1995;SDS011;38556;47.068;15.408;2023-02-22T14:51:48;27.67;;;25.50;;
1995;SDS011;38556;47.068;15.408;2023-02-22T14:54:23;27.30;;;25.40;;
1995;SDS011;38556;47.068;15.408;2023-02-22T14:56:56;26.43;;;24.37;;
1995;SDS011;38556;47.068;15.408;2023-02-22T14:59:43;27.03;;;25.03;;
1995;SDS011;38556;47.068;15.408;2023-02-22T15:02:44;25.67;;;23.57;;
1995;SDS011;38556;47.068;15.408;2023-02-22T15:05:12;25.13;;;23.53;;
1995;SDS011;38556;47.068;15.408;2023-02-22T15:07:50;25.33;;;23.50;;
1995;SDS011;38556;47.068;15.408;2023-02-22T15:10:21;24.97;;;23.07;;